sensor_id;sensor_type;location;lat;lon;timestamp;temperature;humidity
20957;DHT22;10637;47.970;7.830;2024-03-22T00:01:24;11.90;99.90
20957;DHT22;10637;47.970;7.830;2024-03-22T00:06:24;11.80;99.90
20957;DHT22;10637;47.970;7.830;2024-03-22T00:11:25;11.80;99.90
20957;DHT22;10637;47.970;7.830;2024-03-22T00:16:26;11.70;99.90
20957;DHT22;10637;47.970;7.830;2024-03-22T00:21:27;11.40;99.90
20957;DHT22;10637;47.970;7.830;2024-03-22T00:26:29;11.40;99.90
20957;DHT22;10637;47.970;7.830;2024-03-22T00:31:29;11.50;99.90
20957;DHT22;10637;47.970;7.830;2024-03-22T00:36:30;11.50;99.90
20957;DHT22;10637;47.970;7.830;2024-03-22T00:41:31;11.50;99.90
20957;DHT22;10637;47.970;7.830;2024-03-22T00:46:32;11.50;99.90
20957;DHT22;10637;47.970;7.830;2024-03-22T00:51:32;11.50;99.90
20957;DHT22;10637;47.970;7.830;2024-03-22T00:56:33;11.30;99.90
20957;DHT22;10637;47.970;7.830;2024-03-22T01:01:34;11.20;99.90
20957;DHT22;10637;47.970;7.830;2024-03-22T01:06:35;11.20;99.90
20957;DHT22;10637;47.970;7.830;2024-03-22T01:11:36;11.00;99.90
20957;DHT22;10637;47.970;7.830;2024-03-22T01:16:36;11.10;99.90
20957;DHT22;10637;47.970;7.830;2024-03-22T01:21:37;11.10;99.90
20957;DHT22;10637;47.970;7.830;2024-03-22T01:26:38;11.10;99.90
20957;DHT22;10637;47.970;7.830;2024-03-22T01:31:39;11.10;99.90
20957;DHT22;10637;47.970;7.830;2024-03-22T01:36:39;10.90;99.90
20957;DHT22;10637;47.970;7.830;2024-03-22T01:41:40;10.80;99.90
20957;DHT22;10637;47.970;7.830;2024-03-22T01:46:41;10.70;99.90
20957;DHT22;10637;47.970;7.830;2024-03-22T01:51:43;10.70;99.90
20957;DHT22;10637;47.970;7.830;2024-03-22T01:56:44;10.80;99.90
20957;DHT22;10637;47.970;7.830;2024-03-22T02:01:45;10.80;99.90
20957;DHT22;10637;47.970;7.830;2024-03-22T02:06:45;10.80;99.90
20957;DHT22;10637;47.970;7.830;2024-03-22T02:11:46;10.70;99.90
20957;DHT22;10637;47.970;7.830;2024-03-22T02:16:47;10.60;99.90
20957;DHT22;10637;47.970;7.830;2024-03-22T02:21:48;10.50;99.90
20957;DHT22;10637;47.970;7.830;2024-03-22T02:26:49;10.40;99.90
20957;DHT22;10637;47.970;7.830;2024-03-22T02:31:50;10.40;99.90
20957;DHT22;10637;47.970;7.830;2024-03-22T02:36:50;10.40;99.90
20957;DHT22;10637;47.970;7.830;2024-03-22T02:41:51;10.60;99.90
20957;DHT22;10637;47.970;7.830;2024-03-22T02:46:52;10.70;99.90
20957;DHT22;10637;47.970;7.830;2024-03-22T02:51:53;10.60;99.90
20957;DHT22;10637;47.970;7.830;2024-03-22T02:56:53;10.60;99.90
20957;DHT22;10637;47.970;7.830;2024-03-22T03:01:54;10.60;99.90
20957;DHT22;10637;47.970;7.830;2024-03-22T03:06:55;10.70;99.90
20957;DHT22;10637;47.970;7.830;2024-03-22T03:11:56;10.80;99.90
20957;DHT22;10637;47.970;7.830;2024-03-22T03:16:57;10.70;99.90
20957;DHT22;10637;47.970;7.830;2024-03-22T03:21:58;10.90;99.90
20957;DHT22;10637;47.970;7.830;2024-03-22T03:26:58;10.80;99.90
20957;DHT22;10637;47.970;7.830;2024-03-22T03:31:59;10.60;99.90
20957;DHT22;10637;47.970;7.830;2024-03-22T03:37:00;10.70;99.90
20957;DHT22;10637;47.970;7.830;2024-03-22T03:42:01;10.70;99.90
20957;DHT22;10637;47.970;7.830;2024-03-22T03:47:02;10.80;99.90
20957;DHT22;10637;47.970;7.830;2024-03-22T03:52:04;10.70;99.90
20957;DHT22;10637;47.970;7.830;2024-03-22T03:57:05;10.80;99.90
20957;DHT22;10637;47.970;7.830;2024-03-22T04:02:05;10.90;99.90
20957;DHT22;10637;47.970;7.830;2024-03-22T04:07:06;10.70;99.90
20957;DHT22;10637;47.970;7.830;2024-03-22T04:12:07;10.80;99.90
20957;DHT22;10637;47.970;7.830;2024-03-22T04:17:08;10.80;99.90
20957;DHT22;10637;47.970;7.830;2024-03-22T04:22:09;10.80;99.90
20957;DHT22;10637;47.970;7.830;2024-03-22T04:27:09;10.80;99.90
20957;DHT22;10637;47.970;7.830;2024-03-22T04:32:10;10.90;99.90
20957;DHT22;10637;47.970;7.830;2024-03-22T04:37:11;10.90;99.90
20957;DHT22;10637;47.970;7.830;2024-03-22T04:42:12;10.80;99.90
20957;DHT22;10637;47.970;7.830;2024-03-22T04:47:13;10.60;99.90
20957;DHT22;10637;47.970;7.830;2024-03-22T04:52:14;10.80;99.90
20957;DHT22;10637;47.970;7.830;2024-03-22T04:57:15;10.90;99.90
20957;DHT22;10637;47.970;7.830;2024-03-22T05:02:16;10.70;99.90
20957;DHT22;10637;47.970;7.830;2024-03-22T05:07:18;10.50;99.90
20957;DHT22;10637;47.970;7.830;2024-03-22T05:12:19;10.70;99.90
20957;DHT22;10637;47.970;7.830;2024-03-22T05:17:19;10.80;99.90
20957;DHT22;10637;47.970;7.830;2024-03-22T05:22:20;11.00;99.90
20957;DHT22;10637;47.970;7.830;2024-03-22T05:27:22;11.00;99.90
20957;DHT22;10637;47.970;7.830;2024-03-22T05:32:23;11.10;99.90
20957;DHT22;10637;47.970;7.830;2024-03-22T05:37:24;11.10;99.90
20957;DHT22;10637;47.970;7.830;2024-03-22T05:42:25;11.10;99.90
20957;DHT22;10637;47.970;7.830;2024-03-22T05:47:26;11.20;99.90
20957;DHT22;10637;47.970;7.830;2024-03-22T05:52:27;11.10;99.90
20957;DHT22;10637;47.970;7.830;2024-03-22T05:57:28;11.10;99.90
20957;DHT22;10637;47.970;7.830;2024-03-22T06:02:30;10.70;99.90
20957;DHT22;10637;47.970;7.830;2024-03-22T06:07:31;10.60;99.90
20957;DHT22;10637;47.970;7.830;2024-03-22T06:12:40;10.50;99.90
20957;DHT22;10637;47.970;7.830;2024-03-22T06:17:41;10.50;99.90
20957;DHT22;10637;47.970;7.830;2024-03-22T06:22:43;10.50;99.90
20957;DHT22;10637;47.970;7.830;2024-03-22T06:27:44;10.50;99.90
20957;DHT22;10637;47.970;7.830;2024-03-22T06:32:44;10.70;99.90
20957;DHT22;10637;47.970;7.830;2024-03-22T06:37:45;10.50;99.90
20957;DHT22;10637;47.970;7.830;2024-03-22T06:42:46;10.50;99.90
20957;DHT22;10637;47.970;7.830;2024-03-22T06:47:47;10.60;99.90
20957;DHT22;10637;47.970;7.830;2024-03-22T06:52:48;10.80;99.90
20957;DHT22;10637;47.970;7.830;2024-03-22T06:57:49;11.10;99.90
20957;DHT22;10637;47.970;7.830;2024-03-22T07:02:50;11.40;99.90
20957;DHT22;10637;47.970;7.830;2024-03-22T07:07:51;11.90;99.90
20957;DHT22;10637;47.970;7.830;2024-03-22T07:12:54;12.30;99.90
20957;DHT22;10637;47.970;7.830;2024-03-22T07:17:55;12.60;99.90
20957;DHT22;10637;47.970;7.830;2024-03-22T07:22:56;12.80;99.90
20957;DHT22;10637;47.970;7.830;2024-03-22T07:27:57;12.90;99.90
20957;DHT22;10637;47.970;7.830;2024-03-22T07:32:58;13.00;99.90
20957;DHT22;10637;47.970;7.830;2024-03-22T07:37:59;13.30;99.90
20957;DHT22;10637;47.970;7.830;2024-03-22T07:42:59;13.60;99.90
20957;DHT22;10637;47.970;7.830;2024-03-22T07:48:00;13.80;99.90
20957;DHT22;10637;47.970;7.830;2024-03-22T07:53:01;14.00;99.90
20957;DHT22;10637;47.970;7.830;2024-03-22T07:58:02;14.20;99.90
20957;DHT22;10637;47.970;7.830;2024-03-22T08:03:03;14.50;99.90
20957;DHT22;10637;47.970;7.830;2024-03-22T08:08:05;14.80;99.90
20957;DHT22;10637;47.970;7.830;2024-03-22T08:13:06;15.10;99.90
20957;DHT22;10637;47.970;7.830;2024-03-22T08:18:07;15.40;99.90
20957;DHT22;10637;47.970;7.830;2024-03-22T08:23:20;15.60;99.90
20957;DHT22;10637;47.970;7.830;2024-03-22T08:28:23;15.90;99.90
20957;DHT22;10637;47.970;7.830;2024-03-22T08:33:24;16.10;99.90
20957;DHT22;10637;47.970;7.830;2024-03-22T08:38:25;16.50;99.90
20957;DHT22;10637;47.970;7.830;2024-03-22T08:43:26;17.20;99.90
20957;DHT22;10637;47.970;7.830;2024-03-22T08:48:32;17.40;99.90
20957;DHT22;10637;47.970;7.830;2024-03-22T08:53:34;17.60;99.90
20957;DHT22;10637;47.970;7.830;2024-03-22T08:58:35;17.80;99.90
20957;DHT22;10637;47.970;7.830;2024-03-22T09:03:36;18.10;99.90
20957;DHT22;10637;47.970;7.830;2024-03-22T09:08:37;18.60;99.90
20957;DHT22;10637;47.970;7.830;2024-03-22T09:13:38;19.10;99.90
20957;DHT22;10637;47.970;7.830;2024-03-22T09:18:42;19.70;99.90
20957;DHT22;10637;47.970;7.830;2024-03-22T09:23:45;20.20;99.90
20957;DHT22;10637;47.970;7.830;2024-03-22T09:28:52;20.70;99.90
20957;DHT22;10637;47.970;7.830;2024-03-22T09:33:53;20.90;99.90
20957;DHT22;10637;47.970;7.830;2024-03-22T09:38:54;21.40;99.90
20957;DHT22;10637;47.970;7.830;2024-03-22T09:43:58;21.70;99.90
20957;DHT22;10637;47.970;7.830;2024-03-22T09:49:01;22.00;99.90
20957;DHT22;10637;47.970;7.830;2024-03-22T09:54:05;22.10;99.90
20957;DHT22;10637;47.970;7.830;2024-03-22T09:59:08;22.20;99.90
20957;DHT22;10637;47.970;7.830;2024-03-22T10:04:11;22.20;99.90
20957;DHT22;10637;47.970;7.830;2024-03-22T10:09:12;22.10;99.90
20957;DHT22;10637;47.970;7.830;2024-03-22T10:14:14;21.80;99.90
20957;DHT22;10637;47.970;7.830;2024-03-22T10:19:16;21.60;99.90
20957;DHT22;10637;47.970;7.830;2024-03-22T10:24:16;21.70;99.90
20957;DHT22;10637;47.970;7.830;2024-03-22T10:29:17;22.50;99.90
20957;DHT22;10637;47.970;7.830;2024-03-22T10:34:24;22.90;99.90
20957;DHT22;10637;47.970;7.830;2024-03-22T10:39:26;22.20;99.90
20957;DHT22;10637;47.970;7.830;2024-03-22T10:44:27;22.20;99.90
20957;DHT22;10637;47.970;7.830;2024-03-22T10:49:29;21.70;99.90
20957;DHT22;10637;47.970;7.830;2024-03-22T10:54:35;22.70;99.90
20957;DHT22;10637;47.970;7.830;2024-03-22T10:59:37;22.10;99.90
20957;DHT22;10637;47.970;7.830;2024-03-22T11:04:38;22.60;99.90
20957;DHT22;10637;47.970;7.830;2024-03-22T11:09:38;23.00;99.90
20957;DHT22;10637;47.970;7.830;2024-03-22T11:14:42;23.10;99.90
20957;DHT22;10637;47.970;7.830;2024-03-22T11:19:43;23.70;99.90
20957;DHT22;10637;47.970;7.830;2024-03-22T11:24:46;23.70;99.90
20957;DHT22;10637;47.970;7.830;2024-03-22T11:29:47;25.20;98.60
20957;DHT22;10637;47.970;7.830;2024-03-22T11:34:51;25.60;94.50
20957;DHT22;10637;47.970;7.830;2024-03-22T11:39:52;25.00;92.90
20957;DHT22;10637;47.970;7.830;2024-03-22T11:44:53;25.80;90.80
20957;DHT22;10637;47.970;7.830;2024-03-22T11:49:55;25.80;83.00
20957;DHT22;10637;47.970;7.830;2024-03-22T11:54:56;26.10;78.10
20957;DHT22;10637;47.970;7.830;2024-03-22T12:00:02;26.80;75.90
20957;DHT22;10637;47.970;7.830;2024-03-22T12:05:05;27.20;74.00
20957;DHT22;10637;47.970;7.830;2024-03-22T12:10:06;26.70;63.90
20957;DHT22;10637;47.970;7.830;2024-03-22T12:15:07;25.60;72.50
20957;DHT22;10637;47.970;7.830;2024-03-22T12:20:09;25.90;71.70
20957;DHT22;10637;47.970;7.830;2024-03-22T12:25:10;26.20;64.80
20957;DHT22;10637;47.970;7.830;2024-03-22T12:30:12;25.80;64.40
20957;DHT22;10637;47.970;7.830;2024-03-22T12:35:13;26.20;61.00
20957;DHT22;10637;47.970;7.830;2024-03-22T12:40:14;25.10;61.20
20957;DHT22;10637;47.970;7.830;2024-03-22T12:45:15;25.20;63.50
20957;DHT22;10637;47.970;7.830;2024-03-22T12:50:16;25.10;64.20
20957;DHT22;10637;47.970;7.830;2024-03-22T12:55:16;24.30;64.00
20957;DHT22;10637;47.970;7.830;2024-03-22T13:00:17;23.90;65.00
20957;DHT22;10637;47.970;7.830;2024-03-22T13:05:21;24.10;64.00
20957;DHT22;10637;47.970;7.830;2024-03-22T13:10:22;24.10;64.80
20957;DHT22;10637;47.970;7.830;2024-03-22T13:15:22;24.10;64.80
20957;DHT22;10637;47.970;7.830;2024-03-22T13:20:23;24.40;64.70
20957;DHT22;10637;47.970;7.830;2024-03-22T13:25:24;24.60;62.30
20957;DHT22;10637;47.970;7.830;2024-03-22T13:30:26;24.60;63.50
20957;DHT22;10637;47.970;7.830;2024-03-22T13:35:27;24.60;62.50
20957;DHT22;10637;47.970;7.830;2024-03-22T13:40:28;24.10;64.70
20957;DHT22;10637;47.970;7.830;2024-03-22T13:45:30;23.90;68.50
20957;DHT22;10637;47.970;7.830;2024-03-22T13:50:30;23.50;68.80
20957;DHT22;10637;47.970;7.830;2024-03-22T13:55:31;23.90;71.50
20957;DHT22;10637;47.970;7.830;2024-03-22T14:00:33;24.30;68.90
20957;DHT22;10637;47.970;7.830;2024-03-22T14:05:34;24.00;68.60
20957;DHT22;10637;47.970;7.830;2024-03-22T14:10:35;23.50;68.30
20957;DHT22;10637;47.970;7.830;2024-03-22T14:15:36;23.40;70.30
20957;DHT22;10637;47.970;7.830;2024-03-22T14:20:37;23.40;67.70
20957;DHT22;10637;47.970;7.830;2024-03-22T14:25:38;24.20;68.80
20957;DHT22;10637;47.970;7.830;2024-03-22T14:30:40;24.10;62.80
20957;DHT22;10637;47.970;7.830;2024-03-22T14:35:41;23.20;68.40
20957;DHT22;10637;47.970;7.830;2024-03-22T14:40:41;23.30;68.50
20957;DHT22;10637;47.970;7.830;2024-03-22T14:45:42;22.60;72.00
20957;DHT22;10637;47.970;7.830;2024-03-22T14:50:43;22.50;71.00
20957;DHT22;10637;47.970;7.830;2024-03-22T14:55:54;22.00;70.50
20957;DHT22;10637;47.970;7.830;2024-03-22T15:01:01;21.40;73.30
20957;DHT22;10637;47.970;7.830;2024-03-22T15:06:02;21.30;74.40
20957;DHT22;10637;47.970;7.830;2024-03-22T15:11:03;21.10;74.70
20957;DHT22;10637;47.970;7.830;2024-03-22T15:16:04;21.00;74.00
20957;DHT22;10637;47.970;7.830;2024-03-22T15:21:05;21.10;75.20
20957;DHT22;10637;47.970;7.830;2024-03-22T15:26:07;20.80;76.70
20957;DHT22;10637;47.970;7.830;2024-03-22T15:31:07;20.70;75.40
20957;DHT22;10637;47.970;7.830;2024-03-22T15:36:08;20.70;76.90
20957;DHT22;10637;47.970;7.830;2024-03-22T15:41:09;20.60;78.00
20957;DHT22;10637;47.970;7.830;2024-03-22T15:46:10;20.60;77.70
20957;DHT22;10637;47.970;7.830;2024-03-22T15:51:11;20.50;80.10
20957;DHT22;10637;47.970;7.830;2024-03-22T15:56:12;20.60;80.50
20957;DHT22;10637;47.970;7.830;2024-03-22T16:01:12;20.50;79.60
20957;DHT22;10637;47.970;7.830;2024-03-22T16:06:14;20.50;80.10
20957;DHT22;10637;47.970;7.830;2024-03-22T16:11:14;20.60;82.10
20957;DHT22;10637;47.970;7.830;2024-03-22T16:16:15;20.80;84.20
20957;DHT22;10637;47.970;7.830;2024-03-22T16:21:16;20.70;82.30
20957;DHT22;10637;47.970;7.830;2024-03-22T16:26:18;20.70;83.80
20957;DHT22;10637;47.970;7.830;2024-03-22T16:31:19;20.70;81.90
20957;DHT22;10637;47.970;7.830;2024-03-22T16:36:20;20.70;81.20
20957;DHT22;10637;47.970;7.830;2024-03-22T16:41:21;20.60;77.80
20957;DHT22;10637;47.970;7.830;2024-03-22T16:46:22;20.50;79.50
20957;DHT22;10637;47.970;7.830;2024-03-22T16:51:24;20.30;80.60
20957;DHT22;10637;47.970;7.830;2024-03-22T16:56:25;20.00;82.30
20957;DHT22;10637;47.970;7.830;2024-03-22T17:01:26;19.90;82.20
20957;DHT22;10637;47.970;7.830;2024-03-22T17:06:27;19.80;85.40
20957;DHT22;10637;47.970;7.830;2024-03-22T17:11:27;19.60;86.80
20957;DHT22;10637;47.970;7.830;2024-03-22T17:16:29;19.50;89.50
20957;DHT22;10637;47.970;7.830;2024-03-22T17:21:30;19.20;90.80
20957;DHT22;10637;47.970;7.830;2024-03-22T17:26:31;18.90;92.30
20957;DHT22;10637;47.970;7.830;2024-03-22T17:31:31;18.60;93.30
20957;DHT22;10637;47.970;7.830;2024-03-22T17:36:32;18.30;94.40
20957;DHT22;10637;47.970;7.830;2024-03-22T17:41:33;18.10;95.30
20957;DHT22;10637;47.970;7.830;2024-03-22T17:46:34;17.80;96.70
20957;DHT22;10637;47.970;7.830;2024-03-22T17:51:36;17.40;98.00
20957;DHT22;10637;47.970;7.830;2024-03-22T17:56:37;17.10;99.60
20957;DHT22;10637;47.970;7.830;2024-03-22T18:01:38;16.90;99.90
20957;DHT22;10637;47.970;7.830;2024-03-22T18:06:39;16.70;99.90
20957;DHT22;10637;47.970;7.830;2024-03-22T18:11:40;16.40;99.90
20957;DHT22;10637;47.970;7.830;2024-03-22T18:16:41;16.00;99.90
20957;DHT22;10637;47.970;7.830;2024-03-22T18:21:42;15.70;99.90
20957;DHT22;10637;47.970;7.830;2024-03-22T18:26:42;15.50;99.90
20957;DHT22;10637;47.970;7.830;2024-03-22T18:31:43;15.30;99.90
20957;DHT22;10637;47.970;7.830;2024-03-22T18:36:44;15.00;99.90
20957;DHT22;10637;47.970;7.830;2024-03-22T18:41:45;15.00;99.90
20957;DHT22;10637;47.970;7.830;2024-03-22T18:46:46;14.80;99.90
20957;DHT22;10637;47.970;7.830;2024-03-22T18:51:47;14.70;99.90
20957;DHT22;10637;47.970;7.830;2024-03-22T18:56:48;14.60;99.90
20957;DHT22;10637;47.970;7.830;2024-03-22T19:01:50;14.60;99.90
20957;DHT22;10637;47.970;7.830;2024-03-22T19:06:50;14.50;99.90
20957;DHT22;10637;47.970;7.830;2024-03-22T19:11:51;14.20;99.90
20957;DHT22;10637;47.970;7.830;2024-03-22T19:16:52;14.10;99.90
20957;DHT22;10637;47.970;7.830;2024-03-22T19:21:53;14.20;99.90
20957;DHT22;10637;47.970;7.830;2024-03-22T19:26:54;13.90;99.90
20957;DHT22;10637;47.970;7.830;2024-03-22T19:31:54;14.30;99.90
20957;DHT22;10637;47.970;7.830;2024-03-22T19:36:55;14.30;99.90
20957;DHT22;10637;47.970;7.830;2024-03-22T19:41:56;14.10;99.90
20957;DHT22;10637;47.970;7.830;2024-03-22T19:46:57;14.00;99.90
20957;DHT22;10637;47.970;7.830;2024-03-22T19:51:59;13.50;99.90
20957;DHT22;10637;47.970;7.830;2024-03-22T19:57:01;13.80;99.90
20957;DHT22;10637;47.970;7.830;2024-03-22T20:02:02;13.70;99.90
20957;DHT22;10637;47.970;7.830;2024-03-22T20:07:05;13.40;99.90
20957;DHT22;10637;47.970;7.830;2024-03-22T20:12:07;13.40;99.90
20957;DHT22;10637;47.970;7.830;2024-03-22T20:17:08;13.40;99.90
20957;DHT22;10637;47.970;7.830;2024-03-22T20:22:09;14.00;99.90
20957;DHT22;10637;47.970;7.830;2024-03-22T20:27:10;13.50;99.90
20957;DHT22;10637;47.970;7.830;2024-03-22T20:32:11;13.40;99.90
20957;DHT22;10637;47.970;7.830;2024-03-22T20:37:11;13.30;99.90
